Time;durP1;ratioP1;P1;durP2;ratioP2;P2;SDS_P1;SDS_P2;PMS_P1;PMS_P2;Temp;Humidity;BMP_temperature;BMP_pressure;BME280_temperature;BME280_humidity;BME280_pressure;Samples;Min_cycle;Max_cycle;Signal;HPM_P1;HPM_P2
2023/04/17 00:00:33;;;;;;;;;;;21.40;52.30;;;;;;1564985;75;704;-69
2023/04/17 00:02:38;;;;;;;;;;;21.40;52.20;;;;;;1561142;75;747;-71
2023/04/17 00:04:39;;;;;;;;;;;21.40;52.20;;;;;;1563695;75;1302;-68
2023/04/17 00:06:44;;;;;;;;;;;21.30;52.30;;;;;;1563182;75;1550;-70
2023/04/17 00:08:46;;;;;;;;;;;21.40;52.30;;;;;;1531133;76;1000;-69
2023/04/17 00:10:47;;;;;;;;;;;21.40;52.20;;;;;;1564646;75;594;-68
2023/04/17 00:12:50;;;;;;;;;;;21.40;52.10;;;;;;1551650;75;720;-69
2023/04/17 00:14:51;;;;;;;;;;;21.40;52.10;;;;;;1557114;75;1195;-68
2023/04/17 00:16:53;;;;;;;;;;;21.40;52.00;;;;;;1555916;75;673;-68
2023/04/17 00:18:55;;;;;;;;;;;21.40;51.90;;;;;;1557720;75;1942;-69
2023/04/17 00:20:57;;;;;;;;;;;21.40;52.00;;;;;;1557938;75;1458;-69
2023/04/17 00:22:59;;;;;;;;;;;21.40;51.90;;;;;;1557630;75;783;-70
2023/04/17 00:25:01;;;;;;;;;;;21.50;52.00;;;;;;1557102;74;1149;-68
2023/04/17 00:27:03;;;;;;;;;;;21.40;51.90;;;;;;1556412;75;945;-67
2023/04/17 00:29:05;;;;;;;;;;;21.40;51.90;;;;;;1542377;75;918;-68
2023/04/17 00:31:07;;;;;;;;;;;21.40;52.10;;;;;;1560587;75;654;-69
2023/04/17 00:33:09;;;;;;;;;;;21.40;52.10;;;;;;1547877;75;720;-68
2023/04/17 00:35:10;;;;;;;;;;;21.40;52.10;;;;;;1561116;75;1642;-68
2023/04/17 00:37:12;;;;;;;;;;;21.40;52.20;;;;;;1558951;75;761;-69
2023/04/17 00:39:14;;;;;;;;;;;21.30;52.30;;;;;;1547336;75;1945;-68
2023/04/17 00:41:16;;;;;;;;;;;21.40;52.10;;;;;;1555219;75;690;-67
2023/04/17 00:43:18;;;;;;;;;;;21.40;52.10;;;;;;1542340;75;744;-67
2023/04/17 00:45:20;;;;;;;;;;;21.40;52.00;;;;;;1560667;75;1123;-67
2023/04/17 00:47:25;;;;;;;;;;;21.40;52.10;;;;;;1555198;75;655;-68
2023/04/17 00:49:25;;;;;;;;;;;21.40;52.10;;;;;;1553141;75;1771;-67
2023/04/17 00:51:27;;;;;;;;;;;21.40;52.30;;;;;;1558633;75;793;-67
2023/04/17 00:53:31;;;;;;;;;;;21.40;52.10;;;;;;1553271;75;772;-67
2023/04/17 00:55:33;;;;;;;;;;;21.40;52.10;;;;;;1546521;75;1158;-68
2023/04/17 00:57:35;;;;;;;;;;;21.40;52.10;;;;;;1542823;75;730;-68
2023/04/17 00:59:36;;;;;;;;;;;21.40;52.10;;;;;;1550249;75;1953;-67
2023/04/17 01:01:38;;;;;;;;;;;21.30;52.20;;;;;;1570844;75;663;-66
2023/04/17 01:03:40;;;;;;;;;;;21.40;52.10;;;;;;1558001;75;1539;-67
2023/04/17 01:05:43;;;;;;;;;;;21.40;52.50;;;;;;1558551;75;1605;-68
2023/04/17 01:07:45;;;;;;;;;;;21.40;52.50;;;;;;1525183;76;814;-68
2023/04/17 01:09:46;;;;;;;;;;;21.30;52.50;;;;;;1547217;75;778;-67
2023/04/17 01:11:48;;;;;;;;;;;21.40;52.40;;;;;;1564099;75;714;-68
2023/04/17 01:13:50;;;;;;;;;;;21.30;52.40;;;;;;1550062;75;1130;-66
2023/04/17 01:15:52;;;;;;;;;;;21.30;52.50;;;;;;1556370;75;629;-67
2023/04/17 01:17:54;;;;;;;;;;;21.30;52.60;;;;;;1559482;75;1527;-67
2023/04/17 01:19:56;;;;;;;;;;;21.30;52.40;;;;;;1553802;75;1920;-67
2023/04/17 01:21:58;;;;;;;;;;;21.40;52.50;;;;;;1556155;75;786;-68
2023/04/17 01:24:02;;;;;;;;;;;21.20;52.60;;;;;;1560074;75;1148;-66
2023/04/17 01:26:04;;;;;;;;;;;21.30;52.80;;;;;;1556375;75;828;-66
2023/04/17 01:28:06;;;;;;;;;;;21.30;52.70;;;;;;1568411;75;720;-68
2023/04/17 01:30:08;;;;;;;;;;;21.30;52.60;;;;;;1567947;75;679;-68
2023/04/17 01:32:10;;;;;;;;;;;21.20;52.60;;;;;;1562894;75;1866;-69
2023/04/17 01:34:12;;;;;;;;;;;21.30;52.80;;;;;;1556538;75;1150;-67
2023/04/17 01:36:14;;;;;;;;;;;21.30;52.80;;;;;;1555265;75;723;-70
2023/04/17 01:38:16;;;;;;;;;;;21.30;53.00;;;;;;1572129;75;1942;-68
2023/04/17 01:40:17;;;;;;;;;;;21.20;52.90;;;;;;1554717;75;731;-67
2023/04/17 01:42:19;;;;;;;;;;;21.20;53.00;;;;;;1541540;75;720;-67
2023/04/17 01:44:21;;;;;;;;;;;21.20;52.80;;;;;;1541462;75;1565;-65
2023/04/17 01:46:23;;;;;;;;;;;21.30;52.90;;;;;;1556708;75;725;-66
2023/04/17 01:48:25;;;;;;;;;;;21.20;52.70;;;;;;1546147;75;694;-66
2023/04/17 01:50:27;;;;;;;;;;;21.20;52.90;;;;;;1549726;75;778;-66
2023/04/17 01:52:29;;;;;;;;;;;21.20;53.10;;;;;;1563130;75;691;-66
2023/04/17 01:54:31;;;;;;;;;;;21.10;53.00;;;;;;1554244;75;1168;-66
2023/04/17 01:56:33;;;;;;;;;;;21.10;53.10;;;;;;1560048;75;683;-66
2023/04/17 01:58:35;;;;;;;;;;;21.10;53.40;;;;;;1557501;75;1937;-65
2023/04/17 02:00:36;;;;;;;;;;;21.10;53.30;;;;;;1570348;75;721;-66
2023/04/17 02:02:38;;;;;;;;;;;21.10;53.60;;;;;;1564482;75;715;-66
2023/04/17 02:04:40;;;;;;;;;;;21.00;53.60;;;;;;1552320;74;1088;-66
2023/04/17 02:06:42;;;;;;;;;;;21.10;53.70;;;;;;1568554;75;681;-66
2023/04/17 02:08:44;;;;;;;;;;;21.00;53.70;;;;;;1563079;75;773;-69
2023/04/17 02:10:46;;;;;;;;;;;21.00;53.50;;;;;;1548585;75;757;-68
2023/04/17 02:12:48;;;;;;;;;;;21.10;53.50;;;;;;1556148;75;1528;-67
2023/04/17 02:14:50;;;;;;;;;;;21.10;53.30;;;;;;1560718;74;1155;-67
2023/04/17 02:16:52;;;;;;;;;;;21.10;53.40;;;;;;1547906;75;674;-68
2023/04/17 02:18:54;;;;;;;;;;;21.10;53.50;;;;;;1559513;75;1928;-68
2023/04/17 02:20:56;;;;;;;;;;;21.10;53.40;;;;;;1565273;75;770;-69
2023/04/17 02:22:59;;;;;;;;;;;21.20;53.20;;;;;;1557450;75;769;-69
2023/04/17 02:25:01;;;;;;;;;;;21.20;53.10;;;;;;1561578;75;1124;-69
2023/04/17 02:27:03;;;;;;;;;;;21.20;53.00;;;;;;1558733;75;1547;-69
2023/04/17 02:29:05;;;;;;;;;;;21.20;52.80;;;;;;1558533;75;944;-69
2023/04/17 02:31:07;;;;;;;;;;;21.20;52.70;;;;;;1561170;75;680;-70
2023/04/17 02:33:09;;;;;;;;;;;21.30;52.80;;;;;;1559459;75;679;-70
2023/04/17 02:35:11;;;;;;;;;;;21.20;52.60;;;;;;1553456;75;1140;-70
2023/04/17 02:37:13;;;;;;;;;;;21.30;52.80;;;;;;1545803;75;630;-67
2023/04/17 02:39:15;;;;;;;;;;;21.20;52.60;;;;;;1560523;75;1934;-67
2023/04/17 02:41:17;;;;;;;;;;;21.30;52.80;;;;;;1556724;75;1373;-68
2023/04/17 02:43:19;;;;;;;;;;;21.20;52.80;;;;;;1544892;75;900;-69
2023/04/17 02:45:21;;;;;;;;;;;21.20;52.60;;;;;;1552461;75;1177;-66
2023/04/17 02:47:22;;;;;;;;;;;21.30;52.80;;;;;;1554864;75;745;-70
2023/04/17 02:49:24;;;;;;;;;;;21.20;52.60;;;;;;1563735;75;928;-68
2023/04/17 02:51:26;;;;;;;;;;;21.20;52.60;;;;;;1554745;75;779;-67
2023/04/17 02:53:28;;;;;;;;;;;21.30;52.80;;;;;;1543628;75;803;-68
2023/04/17 02:55:30;;;;;;;;;;;21.30;52.90;;;;;;1555103;75;1594;-68
2023/04/17 02:57:32;;;;;;;;;;;21.30;52.90;;;;;;1559818;75;853;-68
2023/04/17 02:59:34;;;;;;;;;;;21.30;52.90;;;;;;1560487;75;1934;-68
2023/04/17 03:01:37;;;;;;;;;;;21.20;52.90;;;;;;1553139;75;744;-68
2023/04/17 03:03:39;;;;;;;;;;;21.30;53.00;;;;;;1547844;75;713;-67
2023/04/17 03:05:41;;;;;;;;;;;21.20;52.90;;;;;;1551586;75;1121;-68
2023/04/17 03:07:43;;;;;;;;;;;21.30;52.90;;;;;;1560108;75;683;-67
2023/04/17 03:09:45;;;;;;;;;;;21.30;52.90;;;;;;1562778;75;1562;-67
2023/04/17 03:11:48;;;;;;;;;;;21.30;53.10;;;;;;1552010;75;721;-66
2023/04/17 03:13:50;;;;;;;;;;;21.30;53.00;;;;;;1546593;75;1169;-67
2023/04/17 03:15:51;;;;;;;;;;;21.20;52.90;;;;;;1545742;75;668;-67
2023/04/17 03:17:53;;;;;;;;;;;21.30;53.00;;;;;;1544703;75;657;-69
2023/04/17 03:19:55;;;;;;;;;;;21.30;53.00;;;;;;1560545;75;1962;-69
2023/04/17 03:21:57;;;;;;;;;;;21.30;53.00;;;;;;1556271;75;771;-67
2023/04/17 03:23:59;;;;;;;;;;;21.30;53.10;;;;;;1548383;75;1487;-67
2023/04/17 03:26:01;;;;;;;;;;;21.40;53.10;;;;;;1556494;75;710;-69
2023/04/17 03:28:03;;;;;;;;;;;21.30;53.40;;;;;;1544244;75;711;-66
2023/04/17 03:30:06;;;;;;;;;;;21.40;53.40;;;;;;1556395;75;782;-67
2023/04/17 03:32:07;;;;;;;;;;;21.20;54.10;;;;;;1549468;75;762;-68
2023/04/17 03:34:09;;;;;;;;;;;21.20;53.80;;;;;;1549365;75;1162;-68
2023/04/17 03:36:11;;;;;;;;;;;21.30;54.00;;;;;;1558482;75;773;-68
2023/04/17 03:38:13;;;;;;;;;;;21.20;53.90;;;;;;1553761;75;1719;-67
2023/04/17 03:40:15;;;;;;;;;;;21.30;54.00;;;;;;1554728;75;1940;-68
2023/04/17 03:42:17;;;;;;;;;;;21.30;54.00;;;;;;1556772;75;690;-68
2023/04/17 03:44:19;;;;;;;;;;;21.30;54.20;;;;;;1551571;75;1172;-67
2023/04/17 03:46:21;;;;;;;;;;;21.20;54.00;;;;;;1545288;75;802;-67
2023/04/17 03:48:23;;;;;;;;;;;21.30;54.20;;;;;;1550107;75;664;-68
2023/04/17 03:50:25;;;;;;;;;;;21.40;54.10;;;;;;1551244;75;721;-68
2023/04/17 03:52:27;;;;;;;;;;;21.20;54.20;;;;;;1543865;75;1530;-70
2023/04/17 03:54:29;;;;;;;;;;;21.30;54.20;;;;;;1561141;75;1157;-68
2023/04/17 03:56:31;;;;;;;;;;;21.40;54.10;;;;;;1553257;75;697;-70
2023/04/17 03:58:32;;;;;;;;;;;21.40;54.00;;;;;;1550030;75;682;-68
2023/04/17 04:00:36;;;;;;;;;;;21.40;53.90;;;;;;1556336;75;1927;-68
2023/04/17 04:02:38;;;;;;;;;;;21.50;53.80;;;;;;1552945;75;700;-69
2023/04/17 04:04:40;;;;;;;;;;;21.50;53.60;;;;;;1547664;75;1145;-66
2023/04/17 04:06:42;;;;;;;;;;;21.50;53.60;;;;;;1561157;75;1538;-67
2023/04/17 04:08:44;;;;;;;;;;;21.50;53.60;;;;;;1560215;75;780;-68
2023/04/17 04:10:46;;;;;;;;;;;21.60;53.40;;;;;;1557683;75;796;-68
2023/04/17 04:12:48;;;;;;;;;;;21.50;53.40;;;;;;1544120;75;770;-70
2023/04/17 04:14:49;;;;;;;;;;;21.60;53.30;;;;;;1538002;75;1156;-69
2023/04/17 04:16:51;;;;;;;;;;;21.50;53.30;;;;;;1541055;75;837;-67
2023/04/17 04:18:53;;;;;;;;;;;21.60;53.20;;;;;;1550568;75;737;-66
2023/04/17 04:20:55;;;;;;;;;;;21.50;53.20;;;;;;1550997;75;1924;-66
2023/04/17 04:22:58;;;;;;;;;;;21.60;53.20;;;;;;1545769;75;709;-66
2023/04/17 04:25:00;;;;;;;;;;;21.60;53.20;;;;;;1561482;74;1121;-66
2023/04/17 04:27:06;;;;;;;;;;;21.60;53.20;;;;;;1534911;75;788;-66
2023/04/17 04:29:05;;;;;;;;;;;21.60;53.20;;;;;;1557646;75;1391;-67
2023/04/17 04:31:08;;;;;;;;;;;21.60;53.10;;;;;;1552001;75;663;-68
2023/04/17 04:33:12;;;;;;;;;;;21.60;53.10;;;;;;1556191;75;1570;-67
2023/04/17 04:35:14;;;;;;;;;;;21.60;53.10;;;;;;1554563;75;1167;-68
2023/04/17 04:37:20;;;;;;;;;;;21.60;53.10;;;;;;1568355;75;602;-68
2023/04/17 04:39:20;;;;;;;;;;;21.60;53.10;;;;;;1546048;75;1927;-67
2023/04/17 04:41:24;;;;;;;;;;;21.60;53.10;;;;;;1560136;75;734;-67
2023/04/17 04:43:27;;;;;;;;;;;21.70;53.10;;;;;;1552048;75;653;-67
2023/04/17 04:45:29;;;;;;;;;;;21.60;53.10;;;;;;1560014;75;1130;-66
2023/04/17 04:47:31;;;;;;;;;;;21.60;53.10;;;;;;1559672;75;1507;-69
2023/04/17 04:49:33;;;;;;;;;;;21.60;53.10;;;;;;1559621;75;727;-70
2023/04/17 04:51:34;;;;;;;;;;;21.60;53.10;;;;;;1557961;75;655;-68
2023/04/17 04:53:36;;;;;;;;;;;21.60;53.10;;;;;;1555869;75;666;-67
2023/04/17 04:55:38;;;;;;;;;;;21.60;53.10;;;;;;1562143;74;1163;-68
2023/04/17 04:57:40;;;;;;;;;;;21.60;53.10;;;;;;1539484;75;677;-68
2023/04/17 04:59:42;;;;;;;;;;;21.60;53.00;;;;;;1555380;75;1927;-68
2023/04/17 05:01:44;;;;;;;;;;;21.60;53.00;;;;;;1550127;75;1374;-66
2023/04/17 05:03:46;;;;;;;;;;;21.50;53.10;;;;;;1556960;75;677;-69
2023/04/17 05:05:49;;;;;;;;;;;21.60;53.30;;;;;;1557576;75;627;-67
2023/04/17 05:07:53;;;;;;;;;;;21.50;53.30;;;;;;1554981;75;685;-66
2023/04/17 05:09:55;;;;;;;;;;;21.60;53.40;;;;;;1555714;75;1648;-67
2023/04/17 05:11:57;;;;;;;;;;;21.60;53.40;;;;;;1553592;75;765;-67
2023/04/17 05:13:58;;;;;;;;;;;21.50;53.70;;;;;;1558551;75;1115;-68
2023/04/17 05:16:00;;;;;;;;;;;21.60;53.60;;;;;;1555706;75;1508;-68
2023/04/17 05:18:02;;;;;;;;;;;21.50;53.40;;;;;;1558755;75;728;-68
2023/04/17 05:20:14;;;;;;;;;;;21.60;53.30;;;;;;1562207;75;1936;-67
2023/04/17 05:22:16;;;;;;;;;;;21.50;53.20;;;;;;1555354;75;622;-68
2023/04/17 05:24:18;;;;;;;;;;;21.60;53.10;;;;;;1548794;75;1157;-67
2023/04/17 05:26:21;;;;;;;;;;;21.50;53.10;;;;;;1542067;75;738;-66
2023/04/17 05:28:22;;;;;;;;;;;21.50;53.10;;;;;;1556329;75;780;-68
2023/04/17 05:30:24;;;;;;;;;;;21.50;53.30;;;;;;1551517;75;1535;-68
2023/04/17 05:32:29;;;;;;;;;;;21.50;53.30;;;;;;1552404;75;764;-68
2023/04/17 05:34:30;;;;;;;;;;;21.50;53.30;;;;;;1559217;75;1657;-67
2023/04/17 05:36:32;;;;;;;;;;;21.50;53.20;;;;;;1559732;75;775;-65
2023/04/17 05:38:35;;;;;;;;;;;21.60;53.20;;;;;;1548194;75;685;-68
2023/04/17 05:40:37;;;;;;;;;;;21.50;53.30;;;;;;1551020;75;2258;-70
2023/04/17 05:42:38;;;;;;;;;;;21.60;53.40;;;;;;1557009;75;791;-67
2023/04/17 05:44:40;;;;;;;;;;;21.60;53.40;;;;;;1556868;75;1560;-68
2023/04/17 05:46:42;;;;;;;;;;;21.50;53.10;;;;;;1558581;75;726;-68
2023/04/17 05:48:44;;;;;;;;;;;21.60;53.00;;;;;;1565155;75;698;-68
2023/04/17 05:50:46;;;;;;;;;;;21.70;53.00;;;;;;1544179;75;752;-68
2023/04/17 05:52:48;;;;;;;;;;;21.60;52.80;;;;;;1558931;75;681;-68
2023/04/17 05:54:50;;;;;;;;;;;21.50;52.30;;;;;;1561452;75;1180;-69
2023/04/17 05:56:52;;;;;;;;;;;21.50;52.10;;;;;;1559652;75;678;-70
2023/04/17 05:58:54;;;;;;;;;;;21.50;52.20;;;;;;1560094;75;1539;-68
2023/04/17 06:00:56;;;;;;;;;;;21.60;52.10;;;;;;1562525;75;1946;-69
2023/04/17 06:03:00;;;;;;;;;;;21.60;52.00;;;;;;1563178;75;737;-69
2023/04/17 06:05:01;;;;;;;;;;;21.50;52.00;;;;;;1564376;75;1108;-69
2023/04/17 06:07:04;;;;;;;;;;;21.60;51.90;;;;;;1559856;75;686;-68
2023/04/17 06:09:08;;;;;;;;;;;21.60;51.90;;;;;;1561044;75;723;-68
2023/04/17 06:11:10;;;;;;;;;;;21.60;51.90;;;;;;1566590;75;740;-69
2023/04/17 06:13:12;;;;;;;;;;;21.60;51.90;;;;;;1559693;75;1468;-68
2023/04/17 06:15:14;;;;;;;;;;;21.60;52.00;;;;;;1556095;75;1159;-69
2023/04/17 06:17:16;;;;;;;;;;;21.60;51.90;;;;;;1569942;75;787;-69
2023/04/17 06:19:18;;;;;;;;;;;21.60;51.80;;;;;;1560884;75;807;-69
2023/04/17 06:21:20;;;;;;;;;;;21.60;51.80;;;;;;1554390;75;1944;-68
2023/04/17 06:23:22;;;;;;;;;;;21.60;51.80;;;;;;1564585;75;813;-69
2023/04/17 06:25:24;;;;;;;;;;;21.60;51.90;;;;;;1548194;75;1141;-66
2023/04/17 06:27:26;;;;;;;;;;;21.60;51.90;;;;;;1549096;75;1710;-67
2023/04/17 06:29:28;;;;;;;;;;;21.60;51.90;;;;;;1550421;75;746;-64
2023/04/17 06:31:30;;;;;;;;;;;21.60;51.90;;;;;;1549831;75;784;-66
2023/04/17 06:33:32;;;;;;;;;;;21.60;51.90;;;;;;1561322;75;717;-67
2023/04/17 06:35:35;;;;;;;;;;;21.50;52.00;;;;;;1556827;75;1122;-66
2023/04/17 06:37:37;;;;;;;;;;;21.40;52.10;;;;;;1562659;75;746;-66
2023/04/17 06:39:39;;;;;;;;;;;21.30;52.30;;;;;;1558170;75;1540;-66
2023/04/17 06:41:41;;;;;;;;;;;21.40;52.30;;;;;;1553523;75;1968;-66
2023/04/17 06:43:43;;;;;;;;;;;21.40;52.30;;;;;;1545591;75;555;-65
2023/04/17 06:45:44;;;;;;;;;;;21.40;52.30;;;;;;1567214;75;1141;-65
2023/04/17 06:47:46;;;;;;;;;;;21.50;52.30;;;;;;1552340;75;698;-65
2023/04/17 06:49:48;;;;;;;;;;;21.50;52.10;;;;;;1564560;75;691;-65
2023/04/17 06:51:50;;;;;;;;;;;21.60;52.10;;;;;;1563619;75;673;-65
2023/04/17 06:53:52;;;;;;;;;;;21.70;52.00;;;;;;1561663;74;1394;-65
2023/04/17 06:55:54;;;;;;;;;;;21.60;51.90;;;;;;1562357;75;691;-67
2023/04/17 06:57:56;;;;;;;;;;;21.70;51.90;;;;;;1532205;75;663;-68
2023/04/17 06:59:58;;;;;;;;;;;21.70;51.80;;;;;;1546675;75;781;-66
2023/04/17 07:01:59;;;;;;;;;;;21.70;51.70;;;;;;1556940;75;1932;-67
2023/04/17 07:04:01;;;;;;;;;;;21.70;51.70;;;;;;1564472;74;1142;-63
2023/04/17 07:06:03;;;;;;;;;;;21.70;51.60;;;;;;1560927;75;676;-71
2023/04/17 07:08:05;;;;;;;;;;;21.60;51.60;;;;;;1552326;75;1360;-66
2023/04/17 07:10:07;;;;;;;;;;;21.70;51.60;;;;;;1557878;75;691;-66
2023/04/17 07:12:09;;;;;;;;;;;21.70;51.60;;;;;;1543300;76;806;-67
2023/04/17 07:14:11;;;;;;;;;;;21.70;51.50;;;;;;1549130;75;1185;-66
2023/04/17 07:16:13;;;;;;;;;;;21.60;51.40;;;;;;1557462;75;751;-66
2023/04/17 07:18:15;;;;;;;;;;;21.60;51.40;;;;;;1553693;75;768;-66
2023/04/17 07:20:17;;;;;;;;;;;21.60;51.40;;;;;;1552378;75;732;-66
2023/04/17 07:22:19;;;;;;;;;;;21.70;51.50;;;;;;1563895;75;1569;-66
2023/04/17 07:24:21;;;;;;;;;;;21.60;51.40;;;;;;1553772;75;1164;-66
2023/04/17 07:26:23;;;;;;;;;;;21.60;51.30;;;;;;1556347;75;774;-66
2023/04/17 07:28:25;;;;;;;;;;;21.60;51.40;;;;;;1551898;75;749;-67
2023/04/17 07:30:27;;;;;;;;;;;21.60;51.40;;;;;;1548964;76;772;-67
2023/04/17 07:32:29;;;;;;;;;;;21.60;51.40;;;;;;1550381;75;612;-67
2023/04/17 07:34:33;;;;;;;;;;;21.60;51.30;;;;;;1552475;75;1159;-67
2023/04/17 07:36:35;;;;;;;;;;;21.60;51.20;;;;;;1560256;75;1883;-67
2023/04/17 07:38:37;;;;;;;;;;;21.60;51.20;;;;;;1557200;75;731;-67
2023/04/17 07:40:40;;;;;;;;;;;21.60;51.20;;;;;;1556708;75;1931;-67
2023/04/17 07:42:41;;;;;;;;;;;21.50;51.10;;;;;;1556119;75;732;-67
2023/04/17 07:44:43;;;;;;;;;;;21.50;51.10;;;;;;1548350;75;1136;-67
2023/04/17 07:46:45;;;;;;;;;;;21.60;51.10;;;;;;1559516;75;735;-67
2023/04/17 07:48:47;;;;;;;;;;;21.50;51.10;;;;;;1555614;75;625;-67
2023/04/17 07:50:49;;;;;;;;;;;21.50;51.20;;;;;;1545378;75;1540;-67
2023/04/17 07:52:51;;;;;;;;;;;21.50;51.10;;;;;;1558425;75;779;-67
2023/04/17 07:54:53;;;;;;;;;;;21.50;51.10;;;;;;1563088;75;1141;-67
2023/04/17 07:56:57;;;;;;;;;;;21.50;51.20;;;;;;1561807;75;762;-67
2023/04/17 07:58:58;;;;;;;;;;;21.40;51.10;;;;;;1551078;75;668;-67
2023/04/17 08:01:04;;;;;;;;;;;21.50;51.20;;;;;;1558207;75;1937;-67
2023/04/17 08:03:06;;;;;;;;;;;21.50;51.30;;;;;;1548826;75;1621;-67
2023/04/17 08:05:08;;;;;;;;;;;21.40;51.10;;;;;;1561752;75;1499;-67
2023/04/17 08:07:11;;;;;;;;;;;21.40;51.10;;;;;;1563570;75;772;-67
2023/04/17 08:09:13;;;;;;;;;;;21.40;51.10;;;;;;1558186;75;756;-67
2023/04/17 08:11:15;;;;;;;;;;;21.40;51.20;;;;;;1558386;75;660;-67
2023/04/17 08:13:17;;;;;;;;;;;21.40;51.10;;;;;;1560195;75;745;-67
2023/04/17 08:15:18;;;;;;;;;;;21.40;51.10;;;;;;1555897;75;1153;-67
2023/04/17 08:17:22;;;;;;;;;;;21.40;51.20;;;;;;1539223;75;750;-67
2023/04/17 08:19:24;;;;;;;;;;;21.40;51.10;;;;;;1553395;75;1581;-67
2023/04/17 08:21:26;;;;;;;;;;;21.40;51.20;;;;;;1561804;75;1934;-67
2023/04/17 08:23:28;;;;;;;;;;;21.40;51.20;;;;;;1556335;75;698;-67
2023/04/17 08:25:30;;;;;;;;;;;21.40;51.20;;;;;;1541925;75;1117;-67
2023/04/17 08:27:32;;;;;;;;;;;21.30;51.20;;;;;;1545732;75;782;-67
2023/04/17 08:29:33;;;;;;;;;;;21.40;51.20;;;;;;1559770;74;917;-67
2023/04/17 08:31:35;;;;;;;;;;;21.40;51.30;;;;;;1555990;75;711;-67
2023/04/17 08:33:37;;;;;;;;;;;21.40;51.20;;;;;;1556688;75;1553;-66
2023/04/17 08:35:39;;;;;;;;;;;21.30;51.20;;;;;;1556477;75;1117;-67
2023/04/17 08:37:43;;;;;;;;;;;21.40;51.20;;;;;;1543204;75;661;-67
2023/04/17 08:39:45;;;;;;;;;;;21.30;51.10;;;;;;1558845;75;785;-67
2023/04/17 08:41:49;;;;;;;;;;;21.30;51.20;;;;;;1560694;75;1913;-67
2023/04/17 08:43:52;;;;;;;;;;;21.40;51.20;;;;;;1554688;75;1117;-68
2023/04/17 08:45:55;;;;;;;;;;;21.40;51.30;;;;;;1558167;75;1070;-67
2023/04/17 08:47:57;;;;;;;;;;;21.40;51.20;;;;;;1551548;75;1422;-67
2023/04/17 08:49:59;;;;;;;;;;;21.30;51.30;;;;;;1559379;75;739;-67
2023/04/17 08:52:04;;;;;;;;;;;21.30;51.30;;;;;;1563819;75;821;-67
2023/04/17 08:54:06;;;;;;;;;;;21.20;51.10;;;;;;1558222;75;1208;-68
2023/04/17 08:56:08;;;;;;;;;;;21.20;51.10;;;;;;1559224;75;744;-67
2023/04/17 08:58:10;;;;;;;;;;;21.30;51.30;;;;;;1553179;75;751;-67
2023/04/17 09:00:12;;;;;;;;;;;21.30;51.30;;;;;;1566760;75;1481;-68
2023/04/17 09:02:14;;;;;;;;;;;21.30;51.30;;;;;;1552959;75;1943;-67
2023/04/17 09:04:27;;;;;;;;;;;21.40;51.30;;;;;;1549464;75;1151;-67
2023/04/17 09:06:28;;;;;;;;;;;21.20;51.10;;;;;;1530972;76;1045;-67
2023/04/17 09:08:30;;;;;;;;;;;21.20;51.20;;;;;;1560162;75;677;-67
2023/04/17 09:10:36;;;;;;;;;;;21.20;51.20;;;;;;1539116;75;701;-67
2023/04/17 09:12:40;;;;;;;;;;;21.20;51.20;;;;;;1552685;75;666;-67
2023/04/17 09:14:41;;;;;;;;;;;21.30;51.40;;;;;;1549151;75;1698;-67
2023/04/17 09:16:53;;;;;;;;;;;21.30;51.40;;;;;;1547095;75;730;-67
2023/04/17 09:18:57;;;;;;;;;;;21.20;51.30;;;;;;1553757;75;663;-68
2023/04/17 09:20:59;;;;;;;;;;;21.20;51.30;;;;;;1562438;75;1069;-68
2023/04/17 09:23:02;;;;;;;;;;;21.20;51.30;;;;;;1558346;75;763;-67
2023/04/17 09:25:04;;;;;;;;;;;21.20;51.20;;;;;;1556287;74;1166;-65
2023/04/17 09:27:22;;;;;;;;;;;21.30;51.30;;;;;;1552487;74;730;-69
2023/04/17 09:29:24;;;;;;;;;;;21.20;51.20;;;;;;1562456;75;1348;-70
2023/04/17 09:31:26;;;;;;;;;;;21.30;51.30;;;;;;1565197;75;773;-69
2023/04/17 09:33:28;;;;;;;;;;;21.30;51.30;;;;;;1559794;75;707;-67
2023/04/17 09:35:30;;;;;;;;;;;21.30;51.30;;;;;;1557936;75;1130;-69
2023/04/17 09:37:48;;;;;;;;;;;21.30;51.30;;;;;;1561312;75;746;-68
2023/04/17 09:39:58;;;;;;;;;;;21.30;51.30;;;;;;1560141;75;673;-68
2023/04/17 09:42:05;;;;;;;;;;;21.30;51.30;;;;;;1555846;75;1919;-68
2023/04/17 09:44:06;;;;;;;;;;;21.30;51.20;;;;;;1551879;75;1590;-69
2023/04/17 09:46:08;;;;;;;;;;;21.30;51.30;;;;;;1557321;75;711;-69
2023/04/17 09:48:10;;;;;;;;;;;21.20;51.10;;;;;;1559327;76;687;-67
2023/04/17 09:50:13;;;;;;;;;;;21.20;51.10;;;;;;1555969;75;779;-69
2023/04/17 09:52:15;;;;;;;;;;;21.30;51.30;;;;;;1551383;75;709;-70
2023/04/17 09:54:18;;;;;;;;;;;21.30;51.30;;;;;;1558903;75;1209;-70
2023/04/17 09:56:23;;;;;;;;;;;21.30;51.20;;;;;;1555178;75;730;-68
2023/04/17 09:58:24;;;;;;;;;;;21.30;51.20;;;;;;1542979;75;1715;-71
2023/04/17 10:00:26;;;;;;;;;;;21.30;51.20;;;;;;1564140;75;741;-71
2023/04/17 10:02:28;;;;;;;;;;;21.20;51.00;;;;;;1557743;75;1943;-71
2023/04/17 10:04:30;;;;;;;;;;;21.20;51.00;;;;;;1552739;75;1149;-71
2023/04/17 10:06:32;;;;;;;;;;;21.20;51.00;;;;;;1558506;75;757;-71
2023/04/17 10:08:34;;;;;;;;;;;21.30;51.10;;;;;;1559923;75;690;-70
2023/04/17 10:10:36;;;;;;;;;;;21.20;51.00;;;;;;1565141;75;1540;-69
2023/04/17 10:12:38;;;;;;;;;;;21.30;51.00;;;;;;1565653;75;713;-68
2023/04/17 10:14:42;;;;;;;;;;;21.30;51.00;;;;;;1551136;75;1150;-67
2023/04/17 10:16:43;;;;;;;;;;;21.30;51.00;;;;;;1556998;75;2078;-68
2023/04/17 10:18:45;;;;;;;;;;;21.30;51.00;;;;;;1562547;75;752;-67
2023/04/17 10:20:48;;;;;;;;;;;21.30;51.00;;;;;;1553291;75;722;-70
2023/04/17 10:22:57;;;;;;;;;;;21.30;50.90;;;;;;1552208;75;1926;-71
2023/04/17 10:25:13;;;;;;;;;;;21.40;50.90;;;;;;1557378;75;1559;-71
2023/04/17 10:27:29;;;;;;;;;;;21.40;50.90;;;;;;1556892;75;646;-69
2023/04/17 10:29:49;;;;;;;;;;;21.40;50.90;;;;;;1545325;76;726;-65
2023/04/17 10:32:11;;;;;;;;;;;21.30;50.90;;;;;;1559230;75;718;-69
2023/04/17 10:34:24;;;;;;;;;;;21.30;50.90;;;;;;1559365;75;1105;-67
2023/04/17 10:36:30;;;;;;;;;;;21.40;50.90;;;;;;1511210;75;1472;-66
2023/04/17 10:38:33;;;;;;;;;;;21.40;50.80;;;;;;1548117;75;1691;-67
2023/04/17 10:40:35;;;;;;;;;;;21.30;50.90;;;;;;1549433;75;1722;-66
2023/04/17 10:42:37;;;;;;;;;;;21.30;50.90;;;;;;1558278;75;1938;-67
2023/04/17 10:44:39;;;;;;;;;;;21.20;50.70;;;;;;1557176;75;1148;-66
2023/04/17 10:46:42;;;;;;;;;;;21.30;50.80;;;;;;1544582;76;694;-67
2023/04/17 10:48:49;;;;;;;;;;;21.30;50.70;;;;;;1555284;75;1835;-66
2023/04/17 10:50:51;;;;;;;;;;;21.30;50.70;;;;;;1556963;75;680;-66
2023/04/17 10:52:53;;;;;;;;;;;21.30;50.80;;;;;;1544455;75;1548;-67
2023/04/17 10:55:13;;;;;;;;;;;21.30;50.70;;;;;;1560683;75;1183;-66
2023/04/17 10:57:14;;;;;;;;;;;21.40;50.70;;;;;;1551241;75;1564;-66
2023/04/17 10:59:17;;;;;;;;;;;21.30;50.70;;;;;;1547657;75;798;-67
2023/04/17 11:01:19;;;;;;;;;;;21.20;50.50;;;;;;1562530;75;950;-65
2023/04/17 11:03:25;;;;;;;;;;;21.30;50.70;;;;;;1557898;75;1909;-65
2023/04/17 11:05:27;;;;;;;;;;;21.30;50.70;;;;;;1558987;75;1093;-65
2023/04/17 11:07:29;;;;;;;;;;;21.30;50.70;;;;;;1559440;75;1526;-65
2023/04/17 11:09:31;;;;;;;;;;;21.30;50.70;;;;;;1549742;76;744;-65
2023/04/17 11:11:34;;;;;;;;;;;21.30;50.70;;;;;;1561458;75;771;-70
2023/04/17 11:13:36;;;;;;;;;;;21.30;50.70;;;;;;1543081;75;1803;-67
2023/04/17 11:15:38;;;;;;;;;;;21.30;50.60;;;;;;1539580;75;1140;-67
2023/04/17 11:17:40;;;;;;;;;;;21.30;50.60;;;;;;1556632;75;694;-67
2023/04/17 11:19:42;;;;;;;;;;;21.20;50.70;;;;;;1562002;75;772;-67
2023/04/17 11:21:50;;;;;;;;;;;21.20;51.00;;;;;;1558355;75;1954;-67
2023/04/17 11:23:52;;;;;;;;;;;21.30;51.50;;;;;;1555380;75;1200;-66
2023/04/17 11:25:55;;;;;;;;;;;21.30;51.70;;;;;;1557079;75;769;-68
2023/04/17 11:27:57;;;;;;;;;;;21.40;51.90;;;;;;1547970;75;683;-68
2023/04/17 11:29:58;;;;;;;;;;;21.30;52.00;;;;;;1561153;75;760;-67
2023/04/17 11:32:00;;;;;;;;;;;21.30;52.10;;;;;;1551529;75;620;-68
2023/04/17 11:34:06;;;;;;;;;;;21.40;52.10;;;;;;1540553;75;1149;-68
2023/04/17 11:36:06;;;;;;;;;;;21.40;52.10;;;;;;1551081;74;1558;-69
2023/04/17 11:38:16;;;;;;;;;;;21.40;52.10;;;;;;1571681;75;699;-68
2023/04/17 11:40:19;;;;;;;;;;;21.40;52.10;;;;;;1558182;75;806;-67
2023/04/17 11:42:27;;;;;;;;;;;21.40;52.20;;;;;;1555486;75;1949;-67
2023/04/17 11:44:29;;;;;;;;;;;21.40;52.10;;;;;;1553828;75;1155;-64
2023/04/17 11:46:31;;;;;;;;;;;21.40;52.20;;;;;;1566265;75;773;-65
2023/04/17 11:48:33;;;;;;;;;;;21.40;52.10;;;;;;1560316;75;717;-65
2023/04/17 11:50:35;;;;;;;;;;;21.50;52.20;;;;;;1530374;77;1602;-67
2023/04/17 11:52:37;;;;;;;;;;;21.50;52.10;;;;;;1505191;77;757;-67
2023/04/17 11:54:40;;;;;;;;;;;21.50;52.10;;;;;;1519285;78;1153;-66
2023/04/17 11:56:42;;;;;;;;;;;21.50;52.00;;;;;;1508105;77;684;-67
2023/04/17 11:58:46;;;;;;;;;;;21.50;52.00;;;;;;1497986;78;1158;-66
2023/04/17 12:00:50;;;;;;;;;;;21.60;52.10;;;;;;1519012;78;696;-65
2023/04/17 12:02:52;;;;;;;;;;;21.50;52.00;;;;;;1489878;79;1932;-66
2023/04/17 12:04:55;;;;;;;;;;;21.60;52.00;;;;;;1517793;76;1562;-66
2023/04/17 12:06:57;;;;;;;;;;;21.60;52.00;;;;;;1522642;77;726;-68
2023/04/17 12:08:59;;;;;;;;;;;21.60;51.90;;;;;;1523822;77;574;-66
2023/04/17 12:11:01;;;;;;;;;;;21.60;51.90;;;;;;1512692;78;756;-67